メインページ
METAR-TAF:

METAR-TAF

空港 :

ノーマン・マンレー国際空港

キングストン, ジャマイカ

緯度: 17-56N, 経度: 076-47W, 海抜: 3m

現時点の気象観測

当レポートは51分前の09:00(UTC)に作成
東/南東の風 13kt
気温 27°C
湿度 89%
気圧 1012 hPa
視程10km以上
高度2000ftの雲はほとんどない

METAR: MKJP 200900Z 12013KT 9999 FEW020 27/25 Q1012

時間: 04:51 (09:51 UTC)

予報

当レポートは4時間36分前の05:15(UTC)に作成
予報は20日の 06時(UTC)から 21日の 06時(UTC)まで有効
東/南東の風 12kt
視程10km以上
高度2000ftの雲はほとんどない
高度2200ftの雲はほとんどない, 積乱雲.
20日の 13時(UTC)から 20日の 15時(UTC)まで徐々に
南東の風 22kt
確率 40% :
20日の 17時(UTC)から 20日の 24時(UTC)まで一時的に
視程: 8000m
高度1800ftの雲は散在している
高度2000ftの雲は散在している, 積乱雲.
にわか雨
21日の 02時(UTC)から 21日の 04時(UTC)まで徐々に
東/南東の風 12kt

TAF: MKJP 200515Z 2006/2106 11012KT 9999 FEW020 FEW022CB BECMG 2013/2015 13022KT PROB40 TEMPO 2017/2024 8000 SHRA SCT018 SCT020CB BECMG 2102/2104 11012KT

4,000以上の空港の気象観測と天気予報(METAR報とTAF報)

利用可能な観測所は地図上に黄色い丸と赤い丸で示す。

丸の上にカーソルを重ねると観測所名を参照できる。

次にクリックすると気象観測と天気予報を参照できる。

マップの切り替え:黒色「×」印の緑ボタンをクリックして拡大、「-」印の緑ボタンをクリックして縮小、緑色の三角印をクリックして隣りの地図に切り替え


METAR-TAF: